VJH372 LIBP-LGKF
Flight info
| Callsign | VJH372 |
|---|---|
| Flight time | N/A |
| Altitude | 45000 |
| Route | ERPOG DCT LATAN UM872 ASTUS DCT KFN |
| Aircraft | PC24/M-SBDGIRWY/LB2 |
Departure
| Time | 2026-05-06 17:12 |
|---|---|
| Airport | Abruzzo Airport (LIBP) |
Arrival
| Time | N/A |
|---|---|
| Airport | Kefallinia Airport (LGKF) |
| Time | Latitude | Longitude | Altitude | Speed | Heading |
|---|---|---|---|---|---|
| 2026-05-06 17:02 | 42.43188 | 14.18760 | 41 ft | 0 kts | 305° |
| 2026-05-06 17:07 | 42.43188 | 14.18759 | 41 ft | 1 kts | 305° |
| 2026-05-06 17:07 | 42.43161 | 14.18703 | 41 ft | 11 kts | 216° |
| 2026-05-06 17:07 | 42.43109 | 14.18651 | 42 ft | 17 kts | 216° |
| 2026-05-06 17:07 | 42.43020 | 14.18549 | 43 ft | 14 kts | 246° |
| 2026-05-06 17:08 | 42.42988 | 14.18443 | 43 ft | 11 kts | 222° |
| 2026-05-06 17:08 | 42.42929 | 14.18379 | 44 ft | 14 kts | 216° |
| 2026-05-06 17:08 | 42.42833 | 14.18280 | 45 ft | 21 kts | 218° |
| 2026-05-06 17:08 | 42.42698 | 14.18140 | 46 ft | 26 kts | 217° |
| 2026-05-06 17:09 | 42.42564 | 14.18002 | 48 ft | 23 kts | 217° |
| 2026-05-06 17:09 | 42.42446 | 14.17879 | 49 ft | 20 kts | 219° |
| 2026-05-06 17:09 | 42.42343 | 14.17769 | 49 ft | 18 kts | 217° |
| 2026-05-06 17:09 | 42.42274 | 14.17656 | 50 ft | 14 kts | 265° |
| 2026-05-06 17:10 | 42.42274 | 14.17594 | 51 ft | 0 kts | 267° |
| 2026-05-06 17:10 | 42.42273 | 14.17576 | 51 ft | 6 kts | 267° |
| 2026-05-06 17:10 | 42.42285 | 14.17498 | 48 ft | 9 kts | 309° |
| 2026-05-06 17:11 | 42.42354 | 14.17493 | 52 ft | 13 kts | 39° |
| 2026-05-06 17:11 | 42.42599 | 14.17751 | 51 ft | 84 kts | 37° |
| 2026-05-06 17:11 | 42.43268 | 14.18438 | 48 ft | 153 kts | 36° |
| 2026-05-06 17:11 | 42.44212 | 14.19419 | 451 ft | 182 kts | 38° |
| 2026-05-06 17:12 | 42.45328 | 14.20602 | 932 ft | 225 kts | 39° |
| 2026-05-06 17:12 | 42.46655 | 14.21978 | 1604 ft | 255 kts | 38° |
| 2026-05-06 17:12 | 42.48078 | 14.23422 | 2246 ft | 248 kts | 38° |
| 2026-05-06 17:12 | 42.49325 | 14.24862 | 2927 ft | 228 kts | 53° |
| 2026-05-06 17:13 | 42.49915 | 14.26872 | 3653 ft | 237 kts | 84° |
| 2026-05-06 17:13 | 42.49705 | 14.29113 | 4418 ft | 245 kts | 106° |
| 2026-05-06 17:13 | 42.49240 | 14.31392 | 5181 ft | 257 kts | 107° |
| 2026-05-06 17:13 | 42.48745 | 14.33759 | 5945 ft | 265 kts | 107° |
| 2026-05-06 17:14 | 42.48257 | 14.36151 | 6673 ft | 269 kts | 106° |
| 2026-05-06 17:14 | 42.47761 | 14.38617 | 7405 ft | 273 kts | 106° |
| 2026-05-06 17:14 | 42.47256 | 14.41114 | 8148 ft | 275 kts | 106° |
| 2026-05-06 17:14 | 42.46746 | 14.43630 | 8905 ft | 280 kts | 106° |
| 2026-05-06 17:15 | 42.46226 | 14.46189 | 9689 ft | 283 kts | 106° |
| 2026-05-06 17:15 | 42.45700 | 14.48777 | 10405 ft | 287 kts | 106° |
| 2026-05-06 17:15 | 42.45215 | 14.51406 | 11123 ft | 290 kts | 99° |
| 2026-05-06 17:15 | 42.45189 | 14.54155 | 11864 ft | 294 kts | 87° |
| 2026-05-06 17:16 | 42.45316 | 14.56943 | 12630 ft | 299 kts | 88° |
| 2026-05-06 17:16 | 42.45435 | 14.59779 | 13412 ft | 304 kts | 88° |
| 2026-05-06 17:16 | 42.45557 | 14.62669 | 14150 ft | 309 kts | 88° |
| 2026-05-06 17:16 | 42.45681 | 14.65549 | 14855 ft | 312 kts | 89° |
| 2026-05-06 17:17 | 42.45807 | 14.68510 | 15590 ft | 316 kts | 89° |
| 2026-05-06 17:17 | 42.45932 | 14.71494 | 16343 ft | 319 kts | 90° |
| 2026-05-06 17:17 | 42.46057 | 14.74506 | 17104 ft | 322 kts | 90° |
| 2026-05-06 17:17 | 42.46180 | 14.77546 | 17862 ft | 324 kts | 90° |
| 2026-05-06 17:18 | 42.46303 | 14.80618 | 18544 ft | 327 kts | 90° |
| 2026-05-06 17:18 | 42.46429 | 14.83715 | 19207 ft | 330 kts | 90° |
| 2026-05-06 17:18 | 42.46551 | 14.86787 | 19861 ft | 332 kts | 90° |
| 2026-05-06 17:18 | 42.46676 | 14.89927 | 20540 ft | 334 kts | 90° |
| 2026-05-06 17:19 | 42.46800 | 14.93082 | 21224 ft | 336 kts | 90° |
| 2026-05-06 17:19 | 42.46924 | 14.96240 | 21930 ft | 337 kts | 90° |
| 2026-05-06 17:19 | 42.47047 | 14.99409 | 22655 ft | 337 kts | 90° |
| 2026-05-06 17:19 | 42.47169 | 15.02571 | 23396 ft | 336 kts | 90° |
| 2026-05-06 17:20 | 42.47290 | 15.05739 | 24004 ft | 337 kts | 90° |
| 2026-05-06 17:20 | 42.47410 | 15.08908 | 24572 ft | 338 kts | 90° |
| 2026-05-06 17:20 | 42.47530 | 15.12094 | 25155 ft | 339 kts | 90° |
| 2026-05-06 17:20 | 42.47587 | 15.15273 | 25740 ft | 336 kts | 98° |
| 2026-05-06 17:21 | 42.47176 | 15.18363 | 26271 ft | 333 kts | 112° |
| 2026-05-06 17:21 | 42.46297 | 15.21235 | 26771 ft | 328 kts | 126° |
| 2026-05-06 17:21 | 42.45023 | 15.23732 | 27282 ft | 322 kts | 139° |
| 2026-05-06 17:21 | 42.43442 | 15.25848 | 27790 ft | 320 kts | 145° |
| 2026-05-06 17:22 | 42.41809 | 15.27921 | 28271 ft | 323 kts | 145° |
| 2026-05-06 17:22 | 42.40164 | 15.30026 | 28740 ft | 326 kts | 145° |
| 2026-05-06 17:22 | 42.38505 | 15.32138 | 29220 ft | 328 kts | 146° |
| 2026-05-06 17:22 | 42.36833 | 15.34260 | 29723 ft | 330 kts | 146° |
| 2026-05-06 17:23 | 42.35156 | 15.36390 | 30192 ft | 332 kts | 146° |
| 2026-05-06 17:23 | 42.33470 | 15.38532 | 30625 ft | 332 kts | 146° |
| 2026-05-06 17:23 | 42.31781 | 15.40675 | 31065 ft | 333 kts | 146° |
| 2026-05-06 17:23 | 42.30091 | 15.42818 | 31519 ft | 333 kts | 146° |
| 2026-05-06 17:24 | 42.28403 | 15.44954 | 31963 ft | 332 kts | 146° |
| 2026-05-06 17:24 | 42.26716 | 15.47091 | 32420 ft | 332 kts | 146° |
| 2026-05-06 17:24 | 42.25035 | 15.49217 | 32889 ft | 330 kts | 146° |
| 2026-05-06 17:24 | 42.23359 | 15.51335 | 33357 ft | 329 kts | 147° |
| 2026-05-06 17:25 | 42.21696 | 15.53435 | 33833 ft | 327 kts | 147° |
| 2026-05-06 17:25 | 42.20064 | 15.55494 | 34262 ft | 324 kts | 147° |
| 2026-05-06 17:25 | 42.18426 | 15.57560 | 34685 ft | 321 kts | 147° |